createdAt,value
2022-10-29T00:00:40.144Z,25.88
2022-10-29T00:03:06.513Z,30.38
2022-10-29T00:05:32.934Z,23.13
2022-10-29T00:07:59.257Z,23.33
2022-10-29T00:10:27.894Z,31.40
2022-10-29T00:12:54.170Z,22.65
2022-10-29T00:15:20.492Z,27.05
2022-10-29T00:17:46.733Z,23.85
2022-10-29T00:20:13.002Z,26.05
2022-10-29T00:22:39.258Z,23.02
2022-10-29T00:25:05.746Z,32.60
2022-10-29T00:27:32.114Z,26.50
2022-10-29T00:29:58.391Z,30.47
2022-10-29T00:32:30.688Z,29.38
2022-10-29T00:34:56.927Z,27.65
2022-10-29T00:37:23.187Z,26.85
2022-10-29T00:39:49.468Z,37.97
2022-10-29T00:42:16.597Z,31.70
2022-10-29T00:44:43.506Z,21.85
2022-10-29T00:47:09.752Z,29.83
2022-10-29T00:49:36.456Z,24.83
2022-10-29T00:52:04.964Z,32.22
2022-10-29T00:54:34.251Z,28.33
2022-10-29T00:57:07.000Z,27.73
2022-10-29T00:59:33.455Z,26.63
2022-10-29T01:01:59.821Z,27.83
2022-10-29T01:04:26.870Z,36.77
2022-10-29T01:06:53.251Z,35.90
2022-10-29T01:09:19.498Z,26.97
2022-10-29T01:12:04.048Z,23.65
2022-10-29T01:14:36.413Z,36.50
2022-10-29T01:17:17.812Z,25.33
2022-10-29T01:20:03.077Z,23.15
2022-10-29T01:22:37.606Z,35.33
2022-10-29T01:25:13.276Z,32.05
2022-10-29T01:27:48.823Z,28.27
2022-10-29T01:30:18.032Z,32.80
2022-10-29T01:33:04.210Z,38.20
2022-10-29T01:35:44.258Z,32.75
2022-10-29T01:38:10.480Z,29.40
2022-10-29T01:40:55.447Z,36.40
2022-10-29T01:43:30.984Z,27.05
2022-10-29T01:46:15.815Z,31.80
2022-10-29T01:48:47.761Z,22.55
2022-10-29T01:51:19.037Z,23.35
2022-10-29T01:53:45.563Z,48.42
2022-10-29T01:56:11.829Z,60.20
2022-10-29T01:58:38.210Z,47.30
2022-10-29T02:01:04.527Z,49.97
2022-10-29T02:03:50.144Z,52.67
2022-10-29T02:06:32.638Z,32.97
2022-10-29T02:09:11.154Z,48.40
2022-10-29T02:11:44.667Z,23.15
2022-10-29T02:14:31.214Z,30.98
2022-10-29T02:16:58.178Z,27.33
2022-10-29T02:19:29.015Z,23.98
2022-10-29T02:21:55.267Z,20.77
2022-10-29T02:24:21.590Z,29.63
2022-10-29T02:26:47.865Z,24.60
2022-10-29T02:29:14.093Z,24.85
2022-10-29T02:31:40.353Z,28.00
2022-10-29T02:34:06.754Z,37.95
2022-10-29T02:36:33.120Z,36.60
2022-10-29T02:38:59.381Z,28.17
2022-10-29T02:41:25.661Z,25.70
2022-10-29T02:43:52.082Z,29.60
2022-10-29T02:46:19.650Z,35.67
2022-10-29T02:48:47.367Z,24.92
2022-10-29T02:51:14.245Z,30.02
2022-10-29T02:53:40.559Z,35.08
2022-10-29T02:56:07.340Z,38.83
2022-10-29T02:58:34.098Z,35.58
2022-10-29T03:01:00.664Z,24.67
2022-10-29T03:03:27.023Z,34.20
2022-10-29T03:05:53.330Z,31.40
2022-10-29T03:08:20.604Z,28.77
2022-10-29T03:13:13.324Z,21.33
2022-10-29T03:15:39.667Z,32.42
2022-10-29T03:18:06.012Z,29.92
2022-10-29T03:20:32.293Z,35.03
2022-10-29T03:22:58.559Z,31.52
2022-10-29T03:25:25.846Z,24.58
2022-10-29T03:30:18.283Z,29.40
2022-10-29T03:32:45.712Z,23.85
2022-10-29T03:35:13.403Z,31.13
2022-10-29T03:37:40.020Z,22.20
2022-10-29T03:40:06.824Z,24.70
2022-10-29T03:42:41.030Z,25.33
2022-10-29T03:45:07.538Z,24.70
2022-10-29T03:47:33.843Z,25.90
2022-10-29T03:50:00.171Z,47.13
2022-10-29T03:52:26.586Z,30.48
2022-10-29T03:54:52.897Z,23.87
2022-10-29T03:57:19.148Z,32.22
2022-10-29T03:59:48.359Z,25.63
2022-10-29T04:02:16.359Z,37.05
2022-10-29T04:04:42.704Z,23.57
2022-10-29T04:07:08.971Z,38.85
2022-10-29T04:09:35.327Z,28.35
2022-10-29T04:12:02.514Z,44.38
2022-10-29T04:14:28.884Z,36.28
2022-10-29T04:16:57.198Z,26.77
2022-10-29T04:19:23.487Z,28.63
2022-10-29T04:30:08.858Z,36.65
2022-10-29T04:32:35.189Z,38.35
2022-10-29T04:35:01.465Z,25.40
2022-10-29T04:37:30.836Z,24.70
2022-10-29T04:39:58.083Z,22.35
2022-10-29T04:42:24.350Z,42.80
2022-10-29T04:44:50.625Z,31.30
2022-10-29T04:47:16.861Z,25.70
2022-10-29T04:49:43.149Z,22.58
2022-10-29T04:52:09.411Z,16.80
2022-10-29T04:54:35.688Z,14.05
2022-10-29T04:57:02.349Z,27.70
2022-10-29T04:59:29.657Z,22.27
2022-10-29T05:04:23.116Z,25.17
2022-10-29T05:06:49.353Z,21.60
2022-10-29T05:09:15.633Z,22.65
2022-10-29T05:11:43.066Z,19.55
2022-10-29T05:16:35.573Z,28.42
2022-10-29T05:19:03.732Z,26.00
2022-10-29T05:21:30.017Z,21.90
2022-10-29T05:23:56.302Z,26.75
2022-10-29T05:26:22.712Z,19.63
2022-10-29T05:28:50.202Z,22.30
2022-10-29T05:31:16.462Z,22.33
2022-10-29T05:33:42.851Z,18.63
2022-10-29T05:36:10.197Z,27.15
2022-10-29T05:41:02.616Z,30.95
2022-10-29T05:43:29.054Z,24.60
2022-10-29T05:45:55.329Z,21.47
2022-10-29T05:48:22.581Z,19.00
2022-10-29T05:50:48.902Z,19.48
2022-10-29T05:53:15.438Z,22.45
2022-10-29T05:55:42.059Z,21.42
2022-10-29T05:58:12.756Z,22.60
2022-10-29T06:00:40.084Z,23.55
2022-10-29T06:05:33.220Z,23.63
2022-10-29T06:08:00.715Z,21.92
2022-10-29T06:10:28.407Z,19.42
2022-10-29T06:12:54.749Z,21.08
2022-10-29T06:15:21.372Z,19.45
2022-10-29T06:17:47.989Z,20.92
2022-10-29T06:20:15.068Z,20.75
2022-10-29T06:22:41.556Z,22.30
2022-10-29T06:25:09.056Z,24.30
2022-10-29T06:27:35.698Z,21.58
2022-10-29T06:30:03.673Z,20.35
2022-10-29T06:32:29.936Z,18.65
2022-10-29T06:34:57.219Z,17.85
2022-10-29T06:39:49.649Z,25.08
2022-10-29T06:42:15.899Z,24.40
2022-10-29T06:44:42.147Z,25.75
2022-10-29T06:47:14.462Z,17.45
2022-10-29T06:49:40.707Z,22.88
2022-10-29T06:52:06.970Z,18.42
2022-10-29T06:54:33.260Z,24.48
2022-10-29T06:56:59.674Z,20.50
2022-10-29T06:59:26.004Z,20.87
2022-10-29T07:01:52.297Z,27.10
2022-10-29T07:04:18.822Z,24.38
2022-10-29T07:06:45.240Z,18.00
2022-10-29T07:09:11.465Z,23.03
2022-10-29T07:11:37.791Z,25.77
2022-10-29T07:14:09.735Z,25.65
2022-10-29T07:16:36.726Z,19.20
2022-10-29T07:19:04.231Z,25.38
2022-10-29T07:21:30.483Z,21.27
2022-10-29T07:23:57.145Z,27.33
2022-10-29T07:26:23.397Z,20.13
2022-10-29T07:28:49.689Z,28.42
2022-10-29T07:31:15.940Z,20.35
2022-10-29T07:33:42.270Z,28.55
2022-10-29T07:36:11.848Z,25.48
2022-10-29T07:38:38.115Z,27.40
2022-10-29T07:41:05.464Z,24.88
2022-10-29T07:45:57.986Z,26.23
2022-10-29T07:48:25.290Z,24.02
2022-10-29T07:53:17.713Z,22.95
2022-10-29T07:55:52.021Z,37.30
2022-10-29T07:58:18.234Z,37.25
2022-10-29T08:00:44.698Z,24.25
2022-10-29T08:03:12.022Z,30.98
2022-10-29T08:05:38.582Z,35.75
2022-10-29T08:08:05.584Z,34.00
2022-10-29T08:10:32.904Z,34.08
2022-10-29T08:13:01.726Z,26.70
2022-10-29T08:15:30.128Z,27.60
2022-10-29T08:17:56.785Z,30.08
2022-10-29T08:20:24.146Z,36.17
2022-10-29T08:22:50.523Z,29.52
2022-10-29T08:25:17.285Z,42.35
2022-10-29T08:27:43.761Z,28.13
2022-10-29T08:30:11.741Z,36.42
2022-10-29T08:32:44.678Z,41.05
2022-10-29T08:35:11.848Z,36.40
2022-10-29T08:40:04.460Z,37.92
2022-10-29T08:42:39.887Z,32.10
2022-10-29T08:45:21.907Z,31.60
2022-10-29T08:48:08.410Z,33.03
2022-10-29T08:50:40.986Z,37.85
2022-10-29T08:53:23.635Z,35.47
2022-10-29T08:55:50.781Z,25.95
2022-10-29T08:58:27.841Z,24.93
2022-10-29T09:00:55.768Z,36.80
2022-10-29T09:03:22.661Z,30.95
2022-10-29T09:06:07.956Z,24.90
2022-10-29T09:08:45.936Z,26.52
2022-10-29T09:11:27.424Z,29.25
2022-10-29T09:13:56.850Z,23.58
2022-10-29T09:16:42.756Z,23.67
2022-10-29T09:19:17.690Z,30.27
2022-10-29T09:21:56.835Z,27.75
2022-10-29T09:24:35.073Z,25.77
2022-10-29T09:27:09.697Z,26.38
2022-10-29T09:29:56.160Z,23.95
2022-10-29T09:32:43.921Z,24.42
2022-10-29T09:35:15.220Z,26.40
2022-10-29T09:37:59.382Z,23.70
2022-10-29T09:40:35.648Z,21.42
2022-10-29T09:43:06.113Z,20.17
2022-10-29T09:45:55.386Z,27.05
2022-10-29T09:48:32.772Z,22.40
2022-10-29T09:51:10.205Z,21.17
2022-10-29T09:53:36.540Z,22.80
2022-10-29T09:56:06.230Z,32.58
2022-10-29T09:58:35.125Z,24.08
2022-10-29T10:01:01.367Z,17.70
2022-10-29T10:03:35.413Z,21.47
2022-10-29T10:06:03.391Z,24.50
2022-10-29T10:08:30.370Z,21.15
2022-10-29T10:10:59.279Z,25.27
2022-10-29T10:13:29.692Z,21.42
2022-10-29T10:15:57.753Z,22.60
2022-10-29T10:18:38.043Z,21.33
2022-10-29T10:21:07.430Z,23.42
2022-10-29T10:23:44.595Z,27.98
2022-10-29T10:26:26.300Z,19.70
2022-10-29T10:29:04.727Z,18.05
2022-10-29T10:31:31.059Z,28.77
2022-10-29T10:33:57.603Z,28.60
2022-10-29T10:36:24.925Z,17.70
2022-10-29T10:38:55.279Z,25.20
2022-10-29T10:41:23.304Z,19.17
2022-10-29T10:43:49.663Z,16.85
2022-10-29T10:46:27.234Z,18.65
2022-10-29T10:51:22.711Z,21.60
2022-10-29T10:53:49.585Z,20.15
2022-10-29T10:56:17.632Z,24.30
2022-10-29T10:58:47.439Z,21.95
2022-10-29T11:01:16.321Z,26.15
2022-10-29T11:03:55.564Z,22.23
2022-10-29T11:06:24.649Z,23.15
2022-10-29T11:09:00.253Z,22.45
2022-10-29T11:11:46.735Z,19.80
2022-10-29T11:14:17.985Z,19.70
2022-10-29T11:16:49.373Z,23.65
2022-10-29T11:19:21.445Z,28.73
2022-10-29T11:21:56.831Z,19.55
2022-10-29T11:24:33.422Z,21.75
2022-10-29T11:27:01.467Z,29.67
2022-10-29T11:30:03.918Z,25.25
2022-10-29T11:32:34.863Z,24.10
2022-10-29T11:35:04.314Z,13.73
2022-10-29T11:37:30.569Z,17.48
2022-10-29T11:39:56.856Z,12.63
2022-10-29T11:42:23.157Z,21.85
2022-10-29T11:44:49.432Z,17.92
2022-10-29T11:47:27.617Z,21.42
2022-10-29T11:50:04.399Z,13.55
2022-10-29T11:52:37.830Z,15.55
2022-10-29T11:55:16.065Z,19.08
2022-10-29T11:57:46.877Z,17.25
2022-10-29T12:00:14.753Z,11.80
2022-10-29T12:03:00.213Z,17.90
2022-10-29T12:05:45.913Z,13.00
2022-10-29T12:08:26.844Z,19.38
2022-10-29T12:11:11.957Z,19.65
2022-10-29T12:13:38.240Z,19.63
2022-10-29T12:16:04.484Z,14.35
2022-10-29T12:18:41.366Z,16.13
2022-10-29T12:21:16.892Z,17.55
2022-10-29T12:23:52.822Z,17.73
2022-10-29T12:26:32.728Z,13.32
2022-10-29T12:29:19.870Z,17.17
2022-10-29T12:31:46.109Z,17.98
2022-10-29T12:34:31.381Z,14.25
2022-10-29T12:36:58.600Z,18.17
2022-10-29T12:39:30.075Z,14.98
2022-10-29T12:42:13.952Z,16.58
2022-10-29T12:44:45.143Z,15.75
2022-10-29T12:47:16.997Z,16.77
2022-10-29T12:49:55.624Z,18.73
2022-10-29T12:52:21.868Z,12.52
2022-10-29T12:54:52.379Z,18.83
2022-10-29T12:57:18.673Z,20.02
2022-10-29T12:59:44.936Z,15.52
2022-10-29T13:02:30.344Z,18.55
2022-10-29T13:05:05.985Z,20.77
2022-10-29T13:07:32.962Z,16.33
2022-10-29T13:10:17.917Z,15.25
2022-10-29T13:12:59.581Z,14.48
2022-10-29T13:15:30.500Z,12.73
2022-10-29T13:17:58.433Z,18.45
2022-10-29T13:20:30.636Z,19.33
2022-10-29T13:22:57.878Z,18.63
2022-10-29T13:25:33.658Z,12.90
2022-10-29T13:28:00.349Z,19.98
2022-10-29T13:30:27.922Z,11.82
2022-10-29T13:32:55.110Z,13.43
2022-10-29T13:35:21.590Z,14.45
2022-10-29T13:40:23.699Z,16.38
2022-10-29T13:42:55.723Z,16.52
2022-10-29T13:45:22.370Z,17.85
2022-10-29T13:50:16.519Z,18.02
2022-10-29T13:52:43.764Z,15.95
2022-10-29T13:55:14.500Z,13.65
2022-10-29T13:57:50.767Z,27.55
2022-10-29T14:00:18.126Z,14.52
2022-10-29T14:02:56.265Z,20.85
2022-10-29T14:05:38.882Z,14.65
2022-10-29T14:08:11.834Z,24.02
2022-10-29T14:10:41.069Z,15.18
2022-10-29T14:13:07.343Z,15.00
2022-10-29T14:15:34.615Z,16.75
2022-10-29T14:18:16.861Z,22.75
2022-10-29T14:20:53.696Z,16.50
2022-10-29T14:23:20.018Z,20.45
2022-10-29T14:25:50.547Z,11.98
2022-10-29T14:28:26.927Z,18.23
2022-10-29T14:31:01.233Z,29.42
2022-10-29T14:33:28.693Z,17.23
2022-10-29T14:36:06.798Z,17.00
2022-10-29T14:38:49.203Z,17.50
2022-10-29T14:41:16.028Z,15.63
2022-10-29T14:43:43.074Z,17.35
2022-10-29T14:46:26.239Z,21.23
2022-10-29T14:49:01.776Z,16.92
2022-10-29T14:51:28.781Z,12.95
2022-10-29T14:53:57.862Z,17.75
2022-10-29T14:56:29.955Z,16.38
2022-10-29T14:58:56.219Z,13.55
2022-10-29T15:01:22.632Z,17.33
2022-10-29T15:03:56.054Z,15.30
2022-10-29T15:06:26.479Z,15.27
2022-10-29T15:08:58.167Z,14.45
2022-10-29T15:11:44.102Z,23.55
2022-10-29T15:14:46.018Z,14.82
2022-10-29T15:17:17.034Z,18.83
2022-10-29T15:19:45.114Z,17.25
2022-10-29T15:22:17.860Z,16.92
2022-10-29T15:24:48.461Z,15.85
2022-10-29T15:27:15.301Z,13.88
2022-10-29T15:32:12.859Z,14.40
2022-10-29T15:34:49.968Z,24.13
2022-10-29T15:37:19.034Z,19.23
2022-10-29T15:40:00.647Z,15.75
2022-10-29T15:42:28.410Z,14.95
2022-10-29T15:45:16.008Z,17.75
2022-10-29T15:47:43.661Z,21.05
2022-10-29T15:50:11.071Z,24.38
2022-10-29T15:52:39.103Z,22.67
2022-10-29T15:55:10.724Z,20.27
2022-10-29T15:57:37.087Z,20.23
2022-10-29T16:00:07.214Z,16.88
2022-10-29T16:02:33.992Z,17.95
2022-10-29T16:05:00.309Z,17.15
2022-10-29T16:07:26.833Z,20.23
2022-10-29T16:09:59.582Z,14.02
2022-10-29T16:12:25.904Z,20.20
2022-10-29T16:14:53.159Z,16.52
2022-10-29T16:17:20.973Z,17.42
2022-10-29T16:19:47.324Z,13.60
2022-10-29T16:22:23.774Z,14.70
2022-10-29T16:24:53.189Z,28.60
2022-10-29T16:27:19.503Z,22.55
2022-10-29T16:29:49.849Z,16.45
2022-10-29T16:32:17.282Z,18.95
2022-10-29T16:34:43.947Z,18.73
2022-10-29T16:37:17.372Z,22.65
2022-10-29T16:39:43.906Z,17.17
2022-10-29T16:42:30.300Z,19.58
2022-10-29T16:44:56.628Z,21.45
2022-10-29T16:47:22.907Z,21.27
2022-10-29T16:49:49.236Z,23.13
2022-10-29T16:52:22.316Z,18.20
2022-10-29T16:54:49.480Z,20.88
2022-10-29T16:57:15.748Z,21.50
2022-10-29T16:59:42.009Z,19.10
2022-10-29T17:02:10.037Z,26.70
2022-10-29T17:04:36.416Z,26.10
2022-10-29T17:07:02.770Z,17.60
2022-10-29T17:09:31.166Z,14.00
2022-10-29T17:12:00.356Z,21.25
2022-10-29T17:14:27.658Z,17.05
2022-10-29T17:16:53.933Z,17.48
2022-10-29T17:19:20.176Z,22.38
2022-10-29T17:21:47.431Z,14.30
2022-10-29T17:24:13.747Z,17.98
2022-10-29T17:26:41.055Z,23.45
2022-10-29T17:29:07.363Z,20.27
2022-10-29T17:31:33.769Z,22.88
2022-10-29T17:34:00.065Z,18.95
2022-10-29T17:36:29.517Z,28.27
2022-10-29T17:38:55.772Z,23.38
2022-10-29T17:41:22.028Z,22.50
2022-10-29T17:43:51.373Z,19.90
2022-10-29T17:46:18.032Z,18.23
2022-10-29T17:48:56.699Z,21.52
2022-10-29T17:51:25.012Z,19.42
2022-10-29T17:53:51.285Z,16.05
2022-10-29T17:56:17.562Z,20.03
2022-10-29T17:58:43.878Z,19.52
2022-10-29T18:01:10.488Z,17.33
2022-10-29T18:03:37.182Z,19.15
2022-10-29T18:06:05.792Z,22.50
2022-10-29T18:08:32.367Z,20.35
2022-10-29T18:11:05.491Z,14.23
2022-10-29T18:13:32.734Z,19.88
2022-10-29T18:16:00.054Z,31.02
2022-10-29T18:18:26.329Z,48.42
2022-10-29T18:20:52.598Z,68.93
2022-10-29T18:23:18.827Z,91.67
2022-10-29T18:25:45.063Z,139.53
2022-10-29T18:28:11.324Z,143.15
2022-10-29T18:30:37.553Z,119.40
2022-10-29T18:33:03.936Z,71.33
2022-10-29T18:35:30.242Z,49.45
2022-10-29T18:37:56.803Z,38.63
2022-10-29T18:40:23.268Z,29.77
2022-10-29T18:42:49.500Z,27.98
2022-10-29T18:45:15.830Z,32.10
2022-10-29T18:47:42.093Z,19.23
2022-10-29T18:50:08.351Z,21.73
2022-10-29T18:52:34.622Z,25.93
2022-10-29T18:55:01.008Z,22.02
2022-10-29T18:57:27.292Z,19.88
2022-10-29T18:59:53.537Z,16.17
2022-10-29T19:02:19.864Z,23.87
2022-10-29T19:04:46.217Z,15.88
2022-10-29T19:07:12.493Z,18.75
2022-10-29T19:09:38.753Z,20.88
2022-10-29T19:12:05.236Z,19.60
2022-10-29T19:14:31.523Z,15.32
2022-10-29T19:16:57.810Z,20.20
2022-10-29T19:19:24.349Z,16.90
2022-10-29T19:21:50.620Z,21.55
2022-10-29T19:24:17.044Z,20.93
2022-10-29T19:26:43.604Z,19.98
2022-10-29T19:29:10.212Z,23.83
2022-10-29T19:31:36.590Z,19.42
2022-10-29T19:34:05.927Z,21.85
2022-10-29T19:36:32.530Z,18.48
2022-10-29T19:39:00.419Z,20.25
2022-10-29T19:41:27.002Z,16.30
2022-10-29T19:43:53.295Z,24.75
2022-10-29T19:46:23.955Z,22.98
2022-10-29T19:48:50.883Z,20.45
2022-10-29T19:51:17.616Z,22.45
2022-10-29T19:53:43.957Z,18.15
2022-10-29T19:56:11.099Z,20.10
2022-10-29T20:01:05.277Z,17.30
2022-10-29T20:03:31.587Z,22.90
2022-10-29T20:05:58.144Z,17.15
2022-10-29T20:08:24.460Z,17.20
2022-10-29T20:10:57.697Z,17.88
2022-10-29T20:13:24.041Z,18.30
2022-10-29T20:15:50.747Z,16.35
2022-10-29T20:18:17.995Z,15.15
2022-10-29T20:20:44.654Z,15.98
2022-10-29T20:23:11.327Z,17.92
2022-10-29T20:25:37.703Z,18.95
2022-10-29T20:28:04.233Z,15.52
2022-10-29T20:30:30.847Z,17.50
2022-10-29T20:32:57.443Z,15.13
2022-10-29T20:35:23.944Z,17.48
2022-10-29T20:37:50.285Z,21.03
2022-10-29T20:40:16.557Z,19.27
2022-10-29T20:42:42.898Z,16.73
2022-10-29T20:45:09.248Z,20.20
2022-10-29T20:47:35.496Z,19.92
2022-10-29T20:50:01.760Z,24.07
2022-10-29T20:52:30.300Z,22.00
2022-10-29T20:54:56.527Z,16.52
2022-10-29T20:57:22.793Z,19.27
2022-10-29T20:59:49.098Z,17.90
2022-10-29T21:02:15.494Z,15.05
2022-10-29T21:04:41.865Z,18.92
2022-10-29T21:07:08.240Z,19.77
2022-10-29T21:09:34.519Z,17.65
2022-10-29T21:12:00.803Z,22.75
2022-10-29T21:14:28.147Z,15.87
2022-10-29T21:16:54.428Z,19.52
2022-10-29T21:19:20.714Z,21.27
2022-10-29T21:21:46.994Z,15.38
2022-10-29T21:24:13.281Z,19.10
2022-10-29T21:26:39.527Z,20.17
2022-10-29T21:29:05.799Z,15.97
2022-10-29T21:31:32.050Z,19.63
2022-10-29T21:33:58.369Z,14.33
2022-10-29T21:36:24.630Z,18.13
2022-10-29T21:38:50.905Z,20.13
2022-10-29T21:41:18.099Z,13.43
2022-10-29T21:43:44.367Z,22.17
2022-10-29T21:46:10.686Z,17.47
2022-10-29T21:48:36.953Z,23.75
2022-10-29T21:51:13.336Z,21.13
2022-10-29T21:53:39.996Z,22.30
2022-10-29T21:56:07.318Z,14.55
2022-10-29T21:58:33.838Z,16.45
2022-10-29T22:01:04.565Z,14.80
2022-10-29T22:03:31.788Z,15.32
2022-10-29T22:08:24.260Z,19.08
2022-10-29T22:10:50.503Z,18.63
2022-10-29T22:13:16.747Z,20.20
2022-10-29T22:15:44.533Z,16.10
2022-10-29T22:18:10.797Z,24.25
2022-10-29T22:20:37.106Z,20.27
2022-10-29T22:23:03.413Z,13.73
2022-10-29T22:25:29.703Z,17.90
2022-10-29T22:27:56.213Z,21.13
2022-10-29T22:30:22.638Z,19.08
2022-10-29T22:32:48.896Z,19.47
2022-10-29T22:35:15.165Z,18.20
2022-10-29T22:37:41.465Z,15.77
2022-10-29T22:40:08.229Z,13.60
2022-10-29T22:42:34.470Z,17.98
2022-10-29T22:45:00.734Z,13.97
2022-10-29T22:47:27.052Z,17.53
2022-10-29T22:49:56.428Z,16.03
2022-10-29T22:52:22.718Z,18.17
2022-10-29T22:54:49.003Z,16.97
2022-10-29T22:57:15.255Z,18.30
2022-10-29T22:59:41.529Z,10.77
2022-10-29T23:02:07.899Z,15.00
2022-10-29T23:04:34.267Z,22.63
2022-10-29T23:07:02.165Z,16.20
2022-10-29T23:09:28.612Z,20.05
2022-10-29T23:11:54.910Z,14.03
2022-10-29T23:14:21.164Z,16.80
2022-10-29T23:16:47.395Z,20.17
2022-10-29T23:19:13.885Z,13.73
2022-10-29T23:21:40.145Z,13.23
2022-10-29T23:24:06.665Z,25.23
2022-10-29T23:26:32.979Z,21.98
2022-10-29T23:28:59.210Z,21.63
2022-10-29T23:31:26.590Z,21.27
2022-10-29T23:33:53.739Z,21.25
2022-10-29T23:38:46.255Z,19.02
2022-10-29T23:41:12.540Z,17.90
2022-10-29T23:43:39.008Z,19.10
2022-10-29T23:46:05.473Z,18.60
2022-10-29T23:48:31.716Z,13.13
2022-10-29T23:50:58.567Z,18.03
2022-10-29T23:53:24.977Z,20.38
2022-10-29T23:55:51.244Z,23.55
2022-10-29T23:58:17.613Z,18.77
